Time;durP1;ratioP1;P1;durP2;ratioP2;P2;SDS_P1;SDS_P2;PMS_P1;PMS_P2;Temp;Humidity;BMP_temperature;BMP_pressure;BME280_temperature;BME280_humidity;BME280_pressure;Samples;Min_cycle;Max_cycle;Signal;HPM_P1;HPM_P2
2022/12/07 00:02:25;;;;;;;;;43.00;38.25;;;;;1.87;85.42;101178.03;5043170;28;47983;-90
2022/12/07 00:04:50;;;;;;;;;46.50;40.25;;;;;1.58;84.73;101119.09;5062512;28;44714;-89
2022/12/07 00:07:15;;;;;;;;;40.00;39.00;;;;;1.81;85.05;101170.91;5076376;28;45424;-90
2022/12/07 00:09:41;;;;;;;;;44.50;39.75;;;;;2.83;85.69;101361.28;5061314;28;45546;-89
2022/12/07 00:12:07;;;;;;;;;47.50;41.00;;;;;2.82;85.47;101342.13;5059363;28;47185;-89
2022/12/07 00:14:33;;;;;;;;;43.25;38.00;;;;;1.95;84.66;101200.81;5077059;28;45265;-90
2022/12/07 00:16:58;;;;;;;;;46.00;40.75;;;;;1.68;85.36;101142.78;5060534;28;45389;-89
2022/12/07 00:19:24;;;;;;;;;46.25;41.00;;;;;1.96;85.45;101206.94;5064326;28;45478;-88
2022/12/07 00:21:49;;;;;;;;;46.75;41.25;;;;;1.47;85.18;101115.31;5049872;28;48203;-88
2022/12/07 00:24:14;;;;;;;;;48.75;40.25;;;;;1.88;85.34;101195.41;5071580;28;45350;-90
2022/12/07 00:26:42;;;;;;;;;45.50;38.75;;;;;2.11;85.29;101232.47;5065808;28;45472;-90
2022/12/07 00:29:16;;;;;;;;;48.25;40.50;;;;;2.62;85.33;101307.69;5080988;28;45332;-89
2022/12/07 00:31:42;;;;;;;;;44.75;34.75;;;;;2.73;85.32;101325.34;5079672;28;45427;-89
2022/12/07 00:34:12;;;;;;;;;42.25;38.50;;;;;1.67;84.98;101148.81;5066075;28;45428;-90
2022/12/07 00:36:38;;;;;;;;;38.75;36.50;;;;;1.40;85.19;101097.78;5062260;28;45562;-89
2022/12/07 00:39:03;;;;;;;;;57.50;42.25;;;;;2.31;85.25;101278.22;5062205;28;45497;-89
2022/12/07 00:41:30;;;;;;;;;35.75;32.75;;;;;2.36;85.22;101272.25;5079148;28;45723;-89
2022/12/07 00:43:56;;;;;;;;;54.25;42.00;;;;;1.40;85.61;101113.41;5081404;28;45486;-89
2022/12/07 00:46:22;;;;;;;;;45.50;42.00;;;;;1.72;85.68;101162.88;5070469;28;45363;-89
2022/12/07 00:48:49;;;;;;;;;50.75;41.75;;;;;1.15;85.55;101071.06;5086315;28;45347;-89
2022/12/07 00:51:16;;;;;;;;;57.75;45.50;;;;;2.78;85.06;101341.97;5070174;28;47060;-88
2022/12/07 00:53:41;;;;;;;;;60.25;46.00;;;;;2.79;85.24;101325.47;5080750;28;45581;-89
2022/12/07 00:56:08;;;;;;;;;57.00;43.25;;;;;0.87;85.14;100992.25;5080606;28;45402;-89
2022/12/07 00:58:34;;;;;;;;;51.25;43.00;;;;;1.86;85.18;101156.25;5075108;28;45431;-91
2022/12/07 01:01:01;;;;;;;;;54.00;43.50;;;;;2.43;85.47;101242.81;5064912;28;45588;-89
2022/12/07 01:03:27;;;;;;;;;49.25;41.50;;;;;1.97;84.78;101153.03;5047296;28;45407;-90
2022/12/07 01:05:54;;;;;;;;;46.75;40.50;;;;;2.56;85.39;101247.50;5066982;28;45395;-90
2022/12/07 01:08:21;;;;;;;;;50.50;43.00;;;;;2.90;85.43;101303.13;5085724;28;45584;-91
2022/12/07 01:10:46;;;;;;;;;41.75;36.25;;;;;2.98;85.44;101317.22;5068320;28;45633;-89
2022/12/07 01:13:12;;;;;;;;;52.50;44.50;;;;;3.01;85.55;101299.03;5042165;28;45409;-89
2022/12/07 01:15:44;;;;;;;;;49.50;41.25;;;;;2.60;85.42;101224.97;5069100;28;45317;-90
2022/12/07 01:18:10;;;;;;;;;39.25;34.75;;;;;3.08;85.35;101301.75;5087652;28;45336;-89
2022/12/07 01:20:36;;;;;;;;;49.00;42.00;;;;;2.53;85.13;101213.50;5063175;28;47231;-89
2022/12/07 01:23:02;;;;;;;;;40.75;36.50;;;;;2.57;85.29;101220.56;5062780;28;45597;-89
2022/12/07 01:25:27;;;;;;;;;46.75;39.50;;;;;3.13;84.73;101305.38;5077109;28;45466;-89
2022/12/07 01:27:52;;;;;;;;;43.25;39.00;;;;;1.91;85.24;101101.63;5043776;28;45346;-88
2022/12/07 01:30:18;;;;;;;;;44.75;37.25;;;;;2.40;85.40;101173.19;5043964;28;46775;-89
2022/12/07 01:32:43;;;;;;;;;40.50;34.25;;;;;2.43;84.48;101177.59;5060041;28;45517;-89
2022/12/07 01:35:09;;;;;;;;;42.50;36.50;;;;;2.17;85.10;101111.78;5042150;28;45359;-88
2022/12/07 01:37:36;;;;;;;;;40.50;36.00;;;;;2.69;85.38;101221.66;5041508;28;45407;-89
2022/12/07 01:40:03;;;;;;;;;56.50;41.25;;;;;3.03;84.63;101257.25;5049132;28;47309;-89
2022/12/07 01:42:29;;;;;;;;;33.50;30.75;;;;;2.69;85.16;101208.63;5079767;28;45429;-89
2022/12/07 01:45:36;;;;;;;;;40.75;35.00;;;;;3.25;84.97;101287.34;5083813;28;45300;-89
2022/12/07 01:48:04;;;;;;;;;42.75;37.50;;;;;2.60;85.26;101178.88;5044029;28;45334;-89
2022/12/07 01:50:31;;;;;;;;;37.00;32.00;;;;;2.54;85.12;101177.84;5041829;28;45466;-88
2022/12/07 01:53:01;;;;;;;;;52.00;41.75;;;;;2.46;84.91;101156.78;5023856;28;45444;-89
2022/12/07 01:55:26;;;;;;;;;32.00;24.25;;;;;2.02;85.19;101081.00;5065064;28;45459;-90
2022/12/07 01:57:55;;;;;;;;;48.50;39.00;;;;;3.16;85.60;101290.63;5063574;28;45657;-89
2022/12/07 02:00:20;;;;;;;;;41.25;37.50;;;;;2.09;85.08;101115.09;5039675;28;45319;-89
2022/12/07 02:02:59;;;;;;;;;43.75;36.00;;;;;2.86;85.41;101242.97;5037492;28;45393;-89
2022/12/07 02:05:26;;;;;;;;;50.25;39.00;;;;;3.00;84.91;101273.72;5041197;28;45363;-89
2022/12/07 02:07:54;;;;;;;;;50.75;40.75;;;;;3.12;85.33;101290.53;5058066;28;45608;-89
2022/12/07 02:10:25;;;;;;;;;56.75;45.50;;;;;2.91;85.15;101260.47;5059134;28;46196;-89
2022/12/07 02:13:00;;;;;;;;;38.75;31.50;;;;;2.14;85.26;101136.06;5059325;28;45342;-88
2022/12/07 02:15:39;;;;;;;;;53.25;38.75;;;;;2.06;85.48;101132.41;5062645;28;45332;-89
2022/12/07 02:18:15;;;;;;;;;40.00;34.25;;;;;2.84;84.77;101276.88;5041574;28;45490;-89
2022/12/07 02:20:54;;;;;;;;;42.00;36.00;;;;;2.17;84.85;101164.84;5022097;28;45805;-88
2022/12/07 02:23:50;;;;;;;;;51.50;41.25;;;;;2.92;85.88;101301.44;5023110;28;45534;-89
2022/12/07 02:26:47;;;;;;;;;37.75;35.00;;;;;2.86;84.77;101301.28;5020829;28;45470;-88
2022/12/07 02:29:15;;;;;;;;;42.25;34.00;;;;;2.81;85.22;101297.69;5046058;28;45315;-88
2022/12/07 02:32:03;;;;;;;;;40.00;35.25;;;;;2.65;85.69;101276.41;5068451;28;45726;-88
2022/12/07 02:34:43;;;;;;;;;39.75;33.25;;;;;2.72;85.06;101289.63;5051304;28;45933;-88
2022/12/07 02:37:21;;;;;;;;;41.00;33.50;;;;;2.67;85.06;101287.81;5056595;28;45356;-88
2022/12/07 02:39:57;;;;;;;;;36.50;32.00;;;;;2.62;84.99;101293.75;5043768;28;45403;-88
2022/12/07 02:42:34;;;;;;;;;33.50;30.25;;;;;0.56;84.85;100953.25;5038082;28;47508;-89
2022/12/07 02:45:01;;;;;;;;;33.75;26.50;;;;;2.07;85.12;101228.06;5043667;28;45322;-88
2022/12/07 02:47:29;;;;;;;;;39.50;32.50;;;;;2.08;85.49;101225.50;5060374;28;45363;-89
2022/12/07 02:49:55;;;;;;;;;31.25;29.00;;;;;1.44;84.96;101124.78;5058306;28;45411;-87
2022/12/07 02:52:20;;;;;;;;;30.25;29.00;;;;;2.41;84.92;101286.28;5058695;28;47250;-89
2022/12/07 02:54:46;;;;;;;;;34.25;27.25;;;;;1.91;85.08;101209.41;5060115;28;45243;-88
2022/12/07 02:57:22;;;;;;;;;35.50;29.50;;;;;1.73;85.29;101193.28;5061188;28;45442;-88
2022/12/07 03:00:02;;;;;;;;;31.75;31.75;;;;;1.66;84.86;101178.34;5029423;28;45535;-88
2022/12/07 03:02:30;;;;;;;;;29.75;23.75;;;;;2.24;84.91;101297.16;5019061;28;45455;-88
2022/12/07 03:05:20;;;;;;;;;41.75;33.50;;;;;2.22;85.66;101290.16;5029278;28;45448;-88
2022/12/07 03:08:04;;;;;;;;;37.00;29.75;;;;;2.18;84.65;101297.00;5066956;28;44811;-88
2022/12/07 03:10:50;;;;;;;;;29.75;26.25;;;;;2.14;85.00;101292.56;5069516;28;45335;-88
2022/12/07 03:13:28;;;;;;;;;36.50;32.25;;;;;2.12;85.37;101289.03;5059943;28;45949;-89
2022/12/07 03:15:57;;;;;;;;;32.25;25.75;;;;;2.09;85.63;101278.53;5056179;28;45474;-89
2022/12/07 03:18:27;;;;;;;;;33.25;30.25;;;;;1.69;85.62;101204.50;5043880;28;45365;-88
2022/12/07 03:20:56;;;;;;;;;36.75;33.75;;;;;0.17;85.03;100953.06;5042400;28;45253;-88
2022/12/07 03:23:24;;;;;;;;;40.00;32.00;;;;;2.07;85.58;101298.47;5038552;28;45448;-88
2022/12/07 03:25:55;;;;;;;;;30.50;25.50;;;;;2.06;85.29;101274.09;5045387;28;45387;-88
2022/12/07 03:28:23;;;;;;;;;32.00;31.25;;;;;1.56;84.27;101191.13;5057824;28;45426;-88
2022/12/07 03:30:58;;;;;;;;;33.75;29.75;;;;;0.87;85.31;101075.53;5060373;28;45357;-88
2022/12/07 03:33:30;;;;;;;;;29.50;25.25;;;;;0.93;84.55;101084.34;5060503;28;45484;-88
2022/12/07 03:36:04;;;;;;;;;30.75;29.25;;;;;1.97;84.63;101258.22;5056092;28;45430;-88
2022/12/07 03:38:38;;;;;;;;;42.75;31.50;;;;;1.93;85.35;101272.91;5040666;28;45508;-88
2022/12/07 03:41:12;;;;;;;;;29.50;27.25;;;;;0.80;84.81;101071.00;5051987;28;45500;-88
2022/12/07 03:43:39;;;;;;;;;29.50;28.50;;;;;0.82;85.51;101066.72;5061467;28;47789;-88
2022/12/07 03:46:36;;;;;;;;;36.00;31.50;;;;;1.47;84.56;101185.66;5067088;28;44839;-89
2022/12/07 03:49:46;;;;;;;;;36.75;25.50;;;;;1.81;85.01;101245.63;5052808;28;45328;-87
2022/12/07 03:52:36;;;;;;;;;29.75;28.25;;;;;0.89;84.98;101099.00;5030758;28;45663;-87
2022/12/07 03:55:10;;;;;;;;;30.00;23.75;;;;;1.75;84.66;101244.63;5051206;28;47823;-87
2022/12/07 03:57:38;;;;;;;;;28.50;25.50;;;;;1.28;84.69;101175.59;5081592;28;45506;-87
2022/12/07 04:00:06;;;;;;;;;34.00;29.50;;;;;1.71;84.61;101245.38;5082226;28;45454;-88
2022/12/07 04:02:32;;;;;;;;;26.75;22.25;;;;;1.25;84.94;101171.19;5063653;28;45350;-86
2022/12/07 04:04:58;;;;;;;;;30.75;25.25;;;;;1.69;85.00;101241.84;5081178;28;45968;-86
2022/12/07 04:07:23;;;;;;;;;31.00;27.75;;;;;0.73;85.33;101091.59;5068214;28;45455;-87
2022/12/07 04:09:49;;;;;;;;;28.50;25.25;;;;;1.08;84.57;101143.78;5067281;28;45538;-90
2022/12/07 04:12:15;;;;;;;;;38.00;25.25;;;;;1.31;85.06;101205.22;5086143;28;45343;-89
2022/12/07 04:14:41;;;;;;;;;23.25;21.75;;;;;0.81;84.93;101106.59;5090213;28;45425;-88
2022/12/07 04:17:06;;;;;;;;;37.50;28.75;;;;;0.79;85.39;101118.72;5070782;28;45489;-90
2022/12/07 04:19:33;;;;;;;;;29.25;25.50;;;;;1.19;85.30;101191.84;5067003;28;45495;-89
2022/12/07 04:22:01;;;;;;;;;26.25;24.50;;;;;0.31;84.81;101025.41;5084055;28;45632;-90
2022/12/07 04:24:27;;;;;;;;;25.25;21.50;;;;;0.81;85.18;101104.00;5075958;28;45497;-89
2022/12/07 04:26:53;;;;;;;;;32.75;25.50;;;;;1.73;85.01;101253.22;5062982;28;46023;-87
2022/12/07 04:29:19;;;;;;;;;23.50;22.75;;;;;0.83;85.18;101091.91;5048606;28;45388;-90
2022/12/07 04:31:45;;;;;;;;;25.25;17.75;;;;;0.89;84.66;101105.09;5049764;28;45364;-88
2022/12/07 04:34:11;;;;;;;;;34.50;25.00;;;;;1.81;85.06;101250.81;5046930;28;47293;-88
2022/12/07 04:36:37;;;;;;;;;24.75;24.25;;;;;0.76;85.53;101066.56;5047975;28;45637;-90
2022/12/07 04:39:03;;;;;;;;;27.50;23.00;;;;;1.52;85.00;101191.88;5046388;28;45408;-89
2022/12/07 04:41:28;;;;;;;;;31.00;22.50;;;;;1.38;84.95;101161.97;5067560;28;45344;-90
2022/12/07 04:43:59;;;;;;;;;28.50;24.75;;;;;0.57;85.22;101025.25;5052885;28;47299;-90
2022/12/07 04:46:25;;;;;;;;;22.00;19.75;;;;;1.42;84.82;101159.47;5051495;28;45483;-89
2022/12/07 04:48:52;;;;;;;;;21.00;18.75;;;;;1.99;85.35;101255.66;5046508;28;45428;-90
2022/12/07 04:51:24;;;;;;;;;20.00;20.00;;;;;1.00;84.74;101061.16;5063476;28;45399;-89
2022/12/07 04:53:50;;;;;;;;;28.50;23.50;;;;;1.63;85.20;101173.06;5069129;28;46573;-89
2022/12/07 04:56:17;;;;;;;;;27.00;22.00;;;;;2.10;84.81;101246.38;5083473;28;45355;-90
2022/12/07 04:58:45;;;;;;;;;26.00;22.00;;;;;2.11;85.48;101246.44;5064744;28;45397;-89
2022/12/07 05:01:10;;;;;;;;;25.00;22.50;;;;;2.13;85.68;101251.69;5068305;28;45436;-89
2022/12/07 05:03:37;;;;;;;;;26.00;25.75;;;;;1.70;85.32;101164.53;5083055;28;45550;-90
2022/12/07 05:06:03;;;;;;;;;27.50;25.00;;;;;2.03;85.04;101221.88;5061179;28;45407;-89
2022/12/07 05:08:29;;;;;;;;;29.50;27.00;;;;;0.99;84.99;101038.53;5074583;28;45306;-89
2022/12/07 05:10:54;;;;;;;;;25.50;22.50;;;;;0.97;85.66;101040.25;5062582;28;45304;-89
2022/12/07 05:13:19;;;;;;;;;29.50;21.75;;;;;1.39;85.37;101122.06;5066823;28;47587;-89
2022/12/07 05:15:47;;;;;;;;;27.00;25.00;;;;;1.97;85.44;101199.97;5068911;28;45542;-90
2022/12/07 05:18:13;;;;;;;;;22.25;20.00;;;;;0.86;85.48;101026.91;5065241;28;45497;-90
2022/12/07 05:20:39;;;;;;;;;28.00;25.00;;;;;1.07;85.11;101051.75;5068936;28;45512;-89
2022/12/07 05:23:04;;;;;;;;;26.00;24.25;;;;;0.65;85.49;100989.91;5040522;28;47593;-89
2022/12/07 05:25:30;;;;;;;;;29.50;23.00;;;;;2.24;84.70;101242.38;5045304;28;45434;-89
2022/12/07 05:27:56;;;;;;;;;29.00;26.00;;;;;1.01;85.29;101030.78;5042846;28;45403;-89
2022/12/07 05:30:23;;;;;;;;;27.25;21.25;;;;;1.85;85.33;101170.13;5050573;28;45375;-90
2022/12/07 05:32:49;;;;;;;;;29.75;25.25;;;;;2.33;84.82;101270.44;5075928;28;45557;-89
2022/12/07 05:35:14;;;;;;;;;29.50;22.50;;;;;1.45;85.20;101119.59;5059183;28;45449;-88
2022/12/07 05:37:40;;;;;;;;;29.25;21.50;;;;;1.48;84.58;101105.78;5047804;28;45470;-89
2022/12/07 05:40:06;;;;;;;;;28.00;26.00;;;;;0.47;85.34;100928.75;5083687;28;45543;-88
2022/12/07 05:42:31;;;;;;;;;28.00;23.50;;;;;1.19;84.78;101046.88;5065135;28;46763;-88
2022/12/07 05:44:57;;;;;;;;;26.25;23.75;;;;;1.30;85.08;101065.38;5085045;28;45481;-89
2022/12/07 05:47:23;;;;;;;;;22.50;20.50;;;;;2.01;84.94;101201.81;5064499;28;45442;-89
2022/12/07 05:49:48;;;;;;;;;19.25;18.25;;;;;2.44;85.39;101247.22;5080564;28;45374;-88
2022/12/07 05:52:14;;;;;;;;;24.00;22.00;;;;;1.91;85.07;101157.28;5079598;28;46340;-89
2022/12/07 05:54:39;;;;;;;;;24.75;23.00;;;;;2.06;84.90;101182.81;5063703;28;45861;-90
2022/12/07 05:57:05;;;;;;;;;21.25;21.25;;;;;1.57;85.02;101099.06;5078746;28;45412;-88
2022/12/07 05:59:30;;;;;;;;;29.00;21.75;;;;;2.38;84.88;101214.00;5062491;28;45414;-89
2022/12/07 06:02:01;;;;;;;;;32.75;29.50;;;;;1.49;85.34;101060.63;5080412;28;45424;-89
2022/12/07 06:04:30;;;;;;;;;27.75;21.50;;;;;1.53;85.27;101050.31;5064242;28;45388;-89
2022/12/07 06:06:55;;;;;;;;;23.00;19.75;;;;;2.65;85.36;101250.31;5069831;28;45300;-90
2022/12/07 06:09:23;;;;;;;;;25.75;25.75;;;;;2.24;85.27;101166.72;5043416;28;45649;-89
2022/12/07 06:14:32;;;;;;;;;22.00;22.00;;;;;2.70;85.35;101252.16;5067774;28;45372;-89
2022/12/07 06:16:59;;;;;;;;;28.75;26.25;;;;;2.39;84.68;101187.09;5053170;28;45405;-91
2022/12/07 06:19:25;;;;;;;;;30.25;26.00;;;;;1.88;85.52;101098.94;5069063;28;45438;-89
2022/12/07 06:21:50;;;;;;;;;29.75;27.00;;;;;2.55;85.01;101213.53;5045907;28;46395;-89
2022/12/07 06:24:17;;;;;;;;;22.50;20.25;;;;;1.92;85.21;101098.16;5065595;28;45730;-89
2022/12/07 06:26:43;;;;;;;;;27.00;24.75;;;;;2.07;84.97;101124.59;5065914;28;44710;-89
2022/12/07 06:29:09;;;;;;;;;29.25;24.25;;;;;1.04;84.86;100942.34;5042558;28;45409;-89
2022/12/07 06:31:36;;;;;;;;;36.75;25.25;;;;;1.03;85.30;100944.06;5061435;28;48495;-89
2022/12/07 06:34:04;;;;;;;;;26.25;22.25;;;;;2.36;84.49;101167.88;5082895;28;45281;-89
2022/12/07 06:36:30;;;;;;;;;26.75;25.50;;;;;1.95;85.09;101088.69;5084317;28;45456;-90
2022/12/07 06:38:56;;;;;;;;;19.75;17.00;;;;;2.61;85.66;101211.97;5060893;28;45452;-90
2022/12/07 06:41:22;;;;;;;;;25.75;22.75;;;;;2.00;84.54;101114.88;5064244;28;46925;-89
2022/12/07 06:43:48;;;;;;;;;21.75;21.75;;;;;2.07;85.12;101128.94;5047467;28;45838;-90
2022/12/07 06:46:15;;;;;;;;;25.00;23.00;;;;;1.91;85.04;101097.31;5051136;28;45273;-88
2022/12/07 06:48:41;;;;;;;;;23.50;21.00;;;;;2.84;85.66;101253.38;5045663;28;45397;-89
2022/12/07 06:51:06;;;;;;;;;33.75;29.25;;;;;2.57;84.65;101194.47;5059089;28;45481;-88
2022/12/07 06:53:32;;;;;;;;;24.75;24.00;;;;;2.87;85.60;101266.50;5055996;28;45550;-88
2022/12/07 06:55:57;;;;;;;;;31.75;25.25;;;;;2.91;85.34;101257.88;5059682;28;45312;-90
2022/12/07 06:58:23;;;;;;;;;31.00;24.00;;;;;2.91;85.21;101247.41;5059566;28;45228;-88
2022/12/07 07:00:50;;;;;;;;;24.25;22.75;;;;;1.80;84.64;101074.44;5070411;28;45288;-89
2022/12/07 07:03:16;;;;;;;;;30.25;23.50;;;;;1.76;84.66;101055.19;5082785;28;45452;-90
2022/12/07 07:05:43;;;;;;;;;27.75;26.50;;;;;2.40;84.80;101156.66;5063535;28;45449;-91
2022/12/07 07:08:08;;;;;;;;;26.00;23.00;;;;;2.95;85.28;101254.47;5080216;28;45519;-89
2022/12/07 07:10:35;;;;;;;;;23.75;21.00;;;;;2.17;85.19;101125.72;5046295;28;48146;-89
2022/12/07 07:13:01;;;;;;;;;22.75;22.75;;;;;1.86;84.72;101071.97;5021883;28;45375;-89
2022/12/07 07:15:26;;;;;;;;;26.75;23.25;;;;;2.00;85.03;101087.91;5035050;28;45454;-86
2022/12/07 07:17:54;;;;;;;;;25.75;24.50;;;;;2.69;84.98;101185.13;5052383;28;45558;-87
2022/12/07 07:20:44;;;;;;;;;26.00;21.50;;;;;1.48;84.68;101007.66;5077988;28;46382;-88
2022/12/07 07:23:09;;;;;;;;;23.25;20.25;;;;;3.06;84.82;101266.91;5055673;28;45463;-89
2022/12/07 07:25:35;;;;;;;;;30.00;25.25;;;;;2.24;85.21;101111.94;5056635;28;45348;-88
2022/12/07 07:28:02;;;;;;;;;25.50;23.75;;;;;2.39;85.44;101127.06;5053066;28;45383;-88
2022/12/07 07:30:27;;;;;;;;;20.50;19.50;;;;;1.99;84.85;101065.28;5080873;28;46196;-87
2022/12/07 07:33:06;;;;;;;;;25.25;22.00;;;;;2.21;85.09;101098.84;5060667;28;45404;-88
2022/12/07 07:35:33;;;;;;;;;24.75;20.00;;;;;3.10;85.13;101264.38;5062303;28;45428;-89
2022/12/07 07:37:59;;;;;;;;;28.50;25.00;;;;;2.85;85.54;101205.50;5063437;28;45403;-89
2022/12/07 07:40:26;;;;;;;;;29.00;26.50;;;;;1.91;84.70;101052.06;5062096;28;47670;-89
2022/12/07 07:42:53;;;;;;;;;25.75;23.50;;;;;1.08;84.68;100889.50;5083987;28;45291;-90
2022/12/07 07:45:21;;;;;;;;;30.25;22.75;;;;;1.94;84.65;101042.63;5066932;28;45301;-90
2022/12/07 07:47:46;;;;;;;;;34.00;28.50;;;;;1.98;85.32;101046.16;5064663;28;45567;-92
2022/12/07 07:50:12;;;;;;;;;30.25;23.00;;;;;1.91;84.74;101037.34;5062681;28;48497;-91
2022/12/07 07:52:38;;;;;;;;;31.00;23.50;;;;;2.39;85.01;101121.84;5085959;28;45410;-91
2022/12/07 07:55:05;;;;;;;;;28.00;26.50;;;;;1.41;84.99;100953.63;5085171;28;45324;-90
2022/12/07 07:57:30;;;;;;;;;30.50;22.25;;;;;2.79;84.96;101174.03;5072418;28;45247;-89
2022/12/07 07:59:56;;;;;;;;;32.25;24.25;;;;;2.43;84.73;101120.19;5083891;28;45186;-91
2022/12/07 08:02:22;;;;;;;;;24.75;21.50;;;;;2.17;84.49;101088.31;5078468;28;45269;-90
2022/12/07 08:04:48;;;;;;;;;24.75;20.75;;;;;2.82;84.72;101192.38;5061857;28;45307;-90
2022/12/07 08:07:15;;;;;;;;;28.50;26.50;;;;;2.00;85.16;101043.59;5065687;28;45317;-91
2022/12/07 08:09:41;;;;;;;;;23.00;21.75;;;;;1.25;84.54;100915.94;5067442;28;47782;-92
2022/12/07 08:12:07;;;;;;;;;33.50;26.50;;;;;2.46;85.28;101112.41;5069557;28;45337;-92
2022/12/07 08:14:36;;;;;;;;;25.00;24.00;;;;;2.97;84.88;101202.28;5074246;28;44762;-92
2022/12/07 08:17:02;;;;;;;;;26.50;23.50;;;;;1.90;84.40;101019.91;5088992;28;45624;-92
2022/12/07 08:19:27;;;;;;;;;27.75;24.50;;;;;2.13;84.61;101028.25;5073976;28;47342;-92
2022/12/07 08:21:55;;;;;;;;;26.50;25.00;;;;;2.27;84.82;101058.97;5093336;28;45331;-92
2022/12/07 08:24:21;;;;;;;;;19.75;18.00;;;;;3.58;84.84;101295.84;5071958;28;45367;-92
2022/12/07 08:26:46;;;;;;;;;23.75;23.25;;;;;3.09;84.80;101188.59;5046259;28;45435;-91
2022/12/07 08:29:12;;;;;;;;;22.75;20.50;;;;;1.90;84.71;100980.81;5042160;28;47012;-92
2022/12/07 08:31:40;;;;;;;;;30.25;22.75;;;;;3.24;84.63;101201.09;5044010;28;45388;-91
2022/12/07 08:34:12;;;;;;;;;31.25;27.00;;;;;2.47;84.35;101068.09;5042782;28;45346;-91
2022/12/07 08:36:51;;;;;;;;;27.25;24.25;;;;;3.76;85.16;101271.81;5043881;28;45460;-91
2022/12/07 08:39:16;;;;;;;;;25.00;22.50;;;;;2.91;84.82;101142.09;5027744;28;46580;-92
2022/12/07 08:41:45;;;;;;;;;28.75;21.25;;;;;2.18;85.28;101002.25;5066392;28;45273;-90
2022/12/07 08:44:10;;;;;;;;;25.50;24.25;;;;;2.25;84.25;101016.31;5038669;28;45408;-91
2022/12/07 08:46:48;;;;;;;;;23.75;21.00;;;;;3.89;84.75;101279.03;5054156;28;45646;-94
2022/12/07 08:49:22;;;;;;;;;25.25;25.25;;;;;2.71;84.59;101076.41;5036246;28;46295;-92
2022/12/07 08:51:48;;;;;;;;;28.25;25.25;;;;;3.53;84.94;101206.88;5051726;28;45901;-91
2022/12/07 08:54:16;;;;;;;;;33.75;25.75;;;;;3.02;84.29;101104.88;5054613;28;45403;-94
2022/12/07 08:56:46;;;;;;;;;20.75;19.25;;;;;2.94;84.20;101090.78;5048324;28;45221;-91
2022/12/07 08:59:15;;;;;;;;;23.25;19.75;;;;;3.12;84.35;101116.38;5047121;28;47022;-91
2022/12/07 09:02:19;;;;;;;;;23.50;19.75;;;;;4.14;84.96;101267.25;5056957;28;45274;-90
2022/12/07 09:04:44;;;;;;;;;32.75;26.50;;;;;4.02;84.60;101238.25;5053510;28;45201;-91
2022/12/07 09:07:10;;;;;;;;;25.25;21.50;;;;;3.88;84.41;101204.03;5065766;28;45234;-92
2022/12/07 09:09:36;;;;;;;;;24.25;19.75;;;;;3.60;84.49;101151.25;5054393;28;47403;-91
2022/12/07 09:12:02;;;;;;;;;27.25;25.00;;;;;2.67;84.09;100998.03;5061333;28;44750;-92
2022/12/07 09:14:28;;;;;;;;;30.00;25.25;;;;;2.70;83.96;101001.53;5070311;28;45524;-88
2022/12/07 09:16:53;;;;;;;;;22.00;19.75;;;;;3.08;84.18;101061.44;5050214;28;45477;-88
2022/12/07 09:19:19;;;;;;;;;26.75;22.00;;;;;3.61;84.30;101136.44;5046772;28;46989;-93
2022/12/07 09:25:10;;;;;;;;;25.75;25.50;;;;;4.57;84.52;101280.16;5049421;28;45206;-92
2022/12/07 09:27:37;;;;;;;;;27.00;23.25;;;;;4.13;84.46;101205.34;5028668;28;45386;-92
2022/12/07 09:30:05;;;;;;;;;31.25;27.75;;;;;3.83;84.08;101161.22;5028235;28;46649;-93
2022/12/07 09:32:33;;;;;;;;;26.50;22.25;;;;;2.98;84.64;101016.88;5026205;28;45291;-93
2022/12/07 09:34:59;;;;;;;;;24.25;23.50;;;;;3.46;84.18;101075.22;5029373;28;45254;-92
2022/12/07 09:37:24;;;;;;;;;23.50;20.75;;;;;3.66;84.49;101098.16;5038834;28;45209;-91
2022/12/07 09:39:50;;;;;;;;;29.75;26.25;;;;;3.79;83.81;101114.94;5039798;28;46563;-91
2022/12/07 09:49:41;;;;;;;;;22.25;21.25;;;;;5.66;83.27;101272.91;5053885;28;45262;-92
2022/12/07 09:52:12;;;;;;;;;23.25;23.25;;;;;5.69;82.79;101189.00;5043651;28;45530;-89
2022/12/07 09:54:46;;;;;;;;;23.50;22.50;;;;;5.80;81.69;101153.28;5054592;28;45564;-90
2022/12/07 09:57:12;;;;;;;;;21.00;20.50;;;;;6.10;80.92;101107.16;5055405;28;44828;-90
2022/12/07 09:59:40;;;;;;;;;25.25;22.75;;;;;6.78;80.60;101165.34;5056044;28;45521;-89
2022/12/07 10:02:35;;;;;;;;;19.75;19.75;;;;;7.82;80.66;101249.00;5050834;28;46173;-88
2022/12/07 10:05:03;;;;;;;;;25.50;22.50;;;;;6.62;79.28;100980.53;5045473;28;45383;-89
2022/12/07 10:07:29;;;;;;;;;21.75;19.75;;;;;8.54;79.34;101263.13;5029922;28;45451;-89
2022/12/07 10:09:54;;;;;;;;;25.50;20.25;;;;;8.64;78.82;101208.63;5068214;28;45332;-91
2022/12/07 10:12:20;;;;;;;;;26.75;24.75;;;;;8.46;77.88;101110.31;5064860;28;46165;-90
2022/12/07 10:15:06;;;;;;;;;23.00;20.75;;;;;9.13;77.94;101146.97;5065688;28;48446;-89
2022/12/07 10:17:36;;;;;;;;;21.00;19.50;;;;;9.87;78.08;101230.97;5048255;28;45399;-91
2022/12/07 10:20:23;;;;;;;;;21.75;21.00;;;;;9.91;78.17;101241.50;5048353;28;44938;-92
2022/12/07 10:23:04;;;;;;;;;26.50;20.75;;;;;9.41;78.81;101172.31;5064108;28;45535;-92
2022/12/07 10:25:36;;;;;;;;;20.75;17.50;;;;;8.43;78.50;101014.59;5050275;28;45433;-91
2022/12/07 10:28:07;;;;;;;;;23.75;20.00;;;;;9.80;78.97;101243.34;5050753;28;45438;-92
2022/12/07 10:30:49;;;;;;;;;22.50;22.00;;;;;9.34;79.14;101156.53;5050820;28;45263;-92
2022/12/07 10:33:53;;;;;;;;;29.00;24.00;;;;;9.89;78.57;101234.50;5058875;28;47189;-91
2022/12/07 10:36:36;;;;;;;;;24.25;24.00;;;;;10.13;78.12;101221.09;5061887;28;45421;-94
2022/12/07 10:39:12;;;;;;;;;21.25;18.75;;;;;9.30;77.66;101044.88;5076792;28;45338;-93
2022/12/07 10:48:56;;;;;;;;;17.25;17.25;;;;;10.76;76.82;101145.63;5088075;28;45348;-91
2022/12/07 10:51:32;;;;;;;;;18.75;18.75;;;;;11.17;77.04;101191.00;4970807;28;45340;-92
2022/12/07 10:54:35;;;;;;;;;19.50;17.00;;;;;11.43;76.48;101188.00;4977793;28;45517;-91
2022/12/07 10:57:00;;;;;;;;;19.75;18.25;;;;;11.67;76.24;101175.31;4966768;28;48562;-94
2022/12/07 11:00:13;;;;;;;;;19.75;16.00;;;;;11.80;76.13;101171.59;4977659;28;45372;-91
2022/12/07 11:02:59;;;;;;;;;19.75;19.25;;;;;10.00;76.38;100876.13;4971756;28;45475;-88
2022/12/07 11:05:36;;;;;;;;;21.75;19.00;;;;;10.96;76.79;101065.19;4964299;28;45624;-88
2022/12/07 11:08:42;;;;;;;;;22.25;21.50;;;;;10.48;77.02;100995.31;4963858;28;45588;-88
2022/12/07 11:11:21;;;;;;;;;27.50;21.50;;;;;10.72;77.57;101082.25;4977742;28;45536;-88
2022/12/07 11:13:59;;;;;;;;;23.25;19.75;;;;;11.10;77.76;101158.47;4977518;28;45453;-89
2022/12/07 11:16:36;;;;;;;;;19.75;19.75;;;;;10.58;78.68;101106.19;4965239;28;45264;-89
2022/12/07 11:19:22;;;;;;;;;22.75;19.25;;;;;10.74;78.65;101160.66;4960113;28;47148;-87
2022/12/07 11:22:12;;;;;;;;;22.75;21.00;;;;;10.65;78.53;101155.47;4976666;28;45676;-86
2022/12/07 11:25:20;;;;;;;;;28.50;18.50;;;;;10.71;78.52;101147.47;4976604;28;45414;-89
2022/12/07 11:28:24;;;;;;;;;26.75;20.25;;;;;9.93;77.83;100964.25;4956116;28;45545;-90
2022/12/07 11:34:25;;;;;;;;;24.00;21.25;;;;;12.13;75.83;101128.69;4981785;28;45334;-90
2022/12/07 11:37:14;;;;;;;;;22.50;18.00;;;;;11.65;74.56;100975.91;4991591;28;45577;-92
2022/12/07 11:39:46;;;;;;;;;20.75;19.50;;;;;11.75;73.75;100887.41;4970562;28;44807;-91
2022/12/07 11:42:28;;;;;;;;;20.25;19.75;;;;;13.36;73.10;101053.69;4968603;28;46760;-94
2022/12/07 11:45:15;;;;;;;;;24.00;22.00;;;;;14.38;71.98;101111.31;4967460;28;45383;-92
2022/12/07 11:48:00;;;;;;;;;19.25;17.25;;;;;15.02;71.36;101118.38;4970994;28;45610;-92
2022/12/07 11:50:33;;;;;;;;;26.50;22.75;;;;;15.53;70.61;101102.63;4963402;28;45288;-87
2022/12/07 11:53:07;;;;;;;;;19.75;19.50;;;;;16.09;69.81;101113.22;4980970;28;48219;-87
2022/12/07 11:55:52;;;;;;;;;22.00;20.00;;;;;16.56;69.67;101101.78;4977031;28;45319;-90
2022/12/07 11:58:50;;;;;;;;;17.00;16.25;;;;;17.10;69.03;101090.94;5002219;28;45396;-92